• Join FlightAware (Why Join?)
  • Login
  • US Flag 
07:09PM EDT


 

Airport Tracker/Info


-or-


 

Live Flight TrackerFlight Track Log ✈ EJA831 ✈ 28-Sep-2013 ✈ KCNY - KOAK

Flight Track Log - Related Links

Times and Time Zones

All times are in EDT time to prevent confusion due to time zone crossing. See the EJA831 flight status page for this flight to view local times or setup timezone preferences in your user account.

Time Position Orientation Groundspeed Altitude Reporting Facility
EDT Latitude Longitude Course Direction KTS MPH feet Rate Location/Type
06:14PM 38.7811 -109.7569 263° West 127 146 6,200  Level Denver Center
06:15PM 38.7792 -109.8061 267° West 172 198 8,100 2,280 Climbing Denver Center
06:16PM 38.7361 -109.8875 236° Southwest 207 238 11,400 2,820 Climbing Denver Center
06:17PM 38.5926 -111.1210 265° West  Level FlightAware Approximate
06:17PM 38.7314 -109.9894 267° West 256 295 13,600  Level Salt Lake Center
06:18PM 38.5834 -111.2496 265° West  Level FlightAware Approximate
06:18PM 38.7267 -110.0967 267° West 292 336 16,000  Level Salt Lake Center
06:19PM 38.5641 -111.3763 263° West  Level FlightAware Approximate
06:20PM 38.5512 -111.5043 263° West  Level FlightAware Approximate
06:20PM 38.7183 -110.2258 265° West 313 360 18,300  Level Denver Center
06:21PM 38.7108 -110.3544 266° West 323 372 21,100 2,460 Climbing Denver Center
06:21PM 38.7061 -110.4464 266° West 323 372 23,000 1,980 Climbing Salt Lake Center
06:22PM 38.7003 -110.5561 266° West 322 371 25,000 1,860 Climbing Salt Lake Center
06:23PM 38.6894 -110.6819 264° West 320 368 26,900 1,620 Climbing Salt Lake Center
06:24PM 38.6814 -110.7969 265° West 331 381 28,300 1,440 Climbing Salt Lake Center
06:26PM 38.6731 -110.9311 265° West 344 396 29,900 1,380 Climbing Salt Lake Center
06:27PM 38.6650 -111.0569 265° West 352 405 31,200 1,080 Climbing Salt Lake Center
06:28PM 38.6564 -111.1908 265° West 367 422 32,200 960 Climbing Salt Lake Center
06:29PM 38.6467 -111.3267 265° West 379 436 33,200 960 Climbing Salt Lake Center
06:30PM 38.6400 -111.4639 266° West 386 444 34,200 960 Climbing Salt Lake Center
06:31PM 38.6333 -111.6017 266° West 390 449 35,200 960 Climbing Salt Lake Center
06:32PM 38.6267 -111.7389 266° West 388 447 36,200 1,080 Climbing Salt Lake Center
06:33PM 38.6194 -111.9044 267° West 390 449 37,400 840 Climbing Salt Lake Center
06:34PM 38.6125 -112.0400 266° West 385 443 38,000 240 Climbing Salt Lake Center
06:35PM 38.6044 -112.1825 266° West 398 458 38,000  Level Salt Lake Center
06:36PM 38.5986 -112.3283 267° West 409 471 38,000  Level Salt Lake Center
06:37PM 38.5900 -112.4742 266° West 414 476 38,000  Level Salt Lake Center
06:38PM 38.5822 -112.6197 266° West 414 476 38,000  Level Salt Lake Center
06:39PM 38.5739 -112.7661 266° West 415 478 38,000  Level Salt Lake Center
06:40PM 38.5664 -112.9125 266° West 416 479 38,000  Level Salt Lake Center
06:41PM 38.5556 -113.0872 266° West 414 476 38,000  Level Salt Lake Center
06:42PM 38.5472 -113.2333 266° West 415 478 38,000  Level Salt Lake Center
06:43PM 38.5381 -113.3803 265° West 416 479 38,000  Level Salt Lake Center
06:44PM 38.5292 -113.5242 266° West 411 473 38,000  Level Salt Lake Center
06:45PM 38.5200 -113.6692 265° West 413 475 38,000  Level Salt Lake Center
06:46PM 38.5119 -113.8131 266° West 409 471 38,000  Level Salt Lake Center
06:47PM 38.5025 -113.9586 265° West 413 475 38,000  Level Salt Lake Center
06:48PM 38.4919 -114.1058 265° West 417 480 38,000  Level Salt Lake Center
06:49PM 38.4806 -114.2803 265° West 414 476 38,000  Level Salt Lake Center
06:50PM 38.4694 -114.4250 264° West 412 474 38,000  Level Salt Lake Center
06:51PM 38.4586 -114.5706 265° West 414 476 38,000  Level Salt Lake Center
06:52PM 38.4489 -114.7169 265° West 415 478 38,000  Level Salt Lake Center
06:53PM 38.4386 -114.8614 265° West 413 475 38,000  Level Salt Lake Center
06:54PM 38.4267 -115.0075 264° West 414 476 38,000  Level Salt Lake Center
06:55PM 38.4158 -115.1533 265° West 415 478 38,000  Level Salt Lake Center
06:56PM 38.4053 -115.2981 265° West 413 475 38,000  Level Salt Lake Center
06:57PM 38.3928 -115.4658 265° West 416 479 38,000  Level Salt Lake Center
06:58PM 38.3808 -115.6111 264° West 414 476 38,000  Level Salt Lake Center
06:59PM 38.3689 -115.7592 264° West 419 482 38,000  Level Salt Lake Center
07:00PM 38.3567 -115.9047 264° West 415 478 38,000  Level Salt Lake Center
07:01PM 38.3447 -116.0508 264° West 415 478 38,000  Level Salt Lake Center
07:02PM 38.3328 -116.1972 264° West 416 479 38,000  Level Salt Lake Center
07:03PM 38.3200 -116.3419 264° West 413 475 38,000  Level Salt Lake Center
07:04PM 38.3092 -116.4583 263° West 414 476 38,000  Level Oakland Center
07:05PM 38.2967 -116.6031 264° West 413 475 38,000  Level Oakland Center
07:06PM 38.2847 -116.7483 264° West 413 475 38,000  Level Oakland Center
07:07PM 38.2711 -116.8936 263° West 414 476 38,000  Level Oakland Center
07:08PM 38.2581 -117.0369 263° West 412 474 38,000  Level Oakland Center
07:09PM 38.2425 -117.1947 263° West 417 480 38,000 -120 Level Oakland Center
07:10PM 38.2281 -117.3417 263° West 420 483 37,800 -660 Descending Oakland Center
07:11PM 38.2147 -117.4956 264° West 418 481 36,700 -900 Descending Oakland Center
07:12PM 38.2006 -117.6397 263° West 413 475 36,000 -360 Descending Oakland Center
07:13PM 38.1861 -117.7844 263° West 414 476 36,000  Level Oakland Center
07:14PM 38.1708 -117.9322 263° West 420 483 36,000  Level Oakland Center
07:15PM 38.1572 -118.0775 263° West 417 480 36,000  Level Oakland Center
07:16PM 38.1386 -118.2508 262° West 424 488 36,000  Level Oakland Center
07:17PM 38.1231 -118.3967 262° West 419 482 36,000  Level Oakland Center
07:18PM 38.1072 -118.5486 263° West 420 483 36,000  Level Oakland Center
07:19PM 38.0928 -118.6961 263° West 421 484 36,000  Level Oakland Center
07:20PM 38.0772 -118.8361 262° West 405 466 36,000  Level Oakland Center
07:21PM 38.0619 -118.9778 262° West 403 464 36,000  Level Oakland Center
07:22PM 38.0467 -119.1197 262° West 405 466 36,000 -240 Level Oakland Center
07:23PM 38.0303 -119.2650 262° West 405 466 35,600 -720 Descending Oakland Center
07:24PM 38.0150 -119.4069 262° West 405 466 34,600 -1,020 Descending Oakland Center
07:25PM 37.9978 -119.5489 261° West 407 468 33,600 -1,020 Descending Oakland Center
07:26PM 37.9817 -119.6900 262° West 405 466 32,600 -1,020 Descending Oakland Center
07:27PM 37.9644 -119.8331 261° West 408 470 31,600 -1,020 Descending Oakland Center
07:28PM 37.9481 -119.9775 262° West 412 474 30,600 -1,080 Descending Oakland Center
07:30PM 37.9300 -120.1175 261° West 404 465 29,500 -1,080 Descending Oakland Center
07:31PM 37.9128 -120.2600 261° West 407 468 28,500 -1,320 Descending Oakland Center
07:32PM 37.8958 -120.4033 262° West 411 473 26,900 -1,800 Descending Oakland Center
07:33PM 37.8800 -120.5417 262° West 401 461 24,900 -2,220 Descending Oakland Center
07:34PM 37.8625 -120.6978 262° West 376 433 22,500 -2,220 Descending Oakland Center
07:35PM 37.8550 -120.8256 266° West 365 420 20,400 -2,040 Descending Oakland Center
07:36PM 37.8500 -120.9667 267° West 357 411 18,200 -1,740 Descending Northern Cal TRACON
07:37PM 37.8333 -121.0833 260° West 342 394 16,700 -1,500 Descending Northern Cal TRACON
07:38PM 37.8167 -121.2000 260° West 380 437 15,200 -1,560 Descending Northern Cal TRACON
07:39PM 37.7833 -121.3000 247° West 351 404 13,800 -1,680 Descending Northern Cal TRACON
07:40PM 37.7500 -121.4167 250° West 335 386 12,100 -1,560 Descending Northern Cal TRACON
07:41PM 37.7167 -121.5167 247° West 287 330 10,600 -1,500 Descending Northern Cal TRACON
07:42PM 37.7000 -121.6000 256° West 282 325 9,100 -1,800 Descending Northern Cal TRACON
07:43PM 37.6833 -121.7000 258° West 273 314 7,100 -1,080 Descending Northern Cal TRACON
07:44PM 37.6833 -121.7833 270° West 246 283 7,000 -840 Descending Northern Cal TRACON
07:45PM 37.6667 -121.8667 256° West 223 257 5,600 -1,200 Descending Northern Cal TRACON
07:46PM 37.6667 -121.9333 270° West 221 254 4,600 -1,140 Descending Northern Cal TRACON
07:47PM 37.6667 -122.0167 270° West 213 245 3,400 -1,260 Descending Northern Cal TRACON
07:48PM 37.6833 -122.0833 288° West 210 242 2,100 -960 Descending Northern Cal TRACON
07:49PM 37.7000 -122.1333 293° West 145 167 1,500 -780 Descending Northern Cal TRACON
07:50PM 37.7167 -122.1667 302° West 112 129 600 -900 Descending Northern Cal TRACON
07:53PM 37.7167 -122.2167 270° West  Level FlightAware Approximate
08:00PM 37.7213 -122.2207 270° West  Level Estimated